Time;durP1;ratioP1;P1;durP2;ratioP2;P2;SDS_P1;SDS_P2;PMS_P1;PMS_P2;Temp;Humidity;BMP_temperature;BMP_pressure;BME280_temperature;BME280_humidity;BME280_pressure;Samples;Min_cycle;Max_cycle;Signal;HPM_P1;HPM_P2
2022/01/31 00:00:40;;;;;;;16.88;6.55;;;;;;;;;;4946450;28;20098;-80
2022/01/31 00:03:05;;;;;;;15.95;6.80;;;;;;;;;;4949000;28;20513;-79
2022/01/31 00:05:31;;;;;;;22.30;6.55;;;;;;;;;;4950326;28;20019;-84
2022/01/31 00:07:56;;;;;;;19.00;6.80;;;;;;;;;;4963742;28;20038;-85
2022/01/31 00:10:28;;;;;;;17.33;6.28;;;;;;;;;;4949029;28;20031;-79
2022/01/31 00:13:19;;;;;;;15.30;6.20;;;;;;;;;;4947378;28;20409;-85
2022/01/31 00:15:46;;;;;;;13.20;5.68;;;;;;;;;;4965015;28;20080;-84
2022/01/31 00:18:12;;;;;;;15.77;5.78;;;;;;;;;;4970767;28;20041;-85
2022/01/31 00:20:37;;;;;;;18.60;6.07;;;;;;;;;;4950634;28;20026;-80
2022/01/31 00:23:02;;;;;;;16.67;6.20;;;;;;;;;;4952349;28;20026;-80
2022/01/31 00:25:28;;;;;;;16.60;5.65;;;;;;;;;;4953551;28;20033;-80
2022/01/31 00:27:53;;;;;;;11.98;5.13;;;;;;;;;;4953417;28;20047;-80
2022/01/31 00:30:19;;;;;;;18.27;6.30;;;;;;;;;;4941674;28;20031;-84
2022/01/31 00:32:45;;;;;;;16.52;6.00;;;;;;;;;;4949313;28;20485;-79
2022/01/31 00:35:11;;;;;;;13.80;5.00;;;;;;;;;;4955794;28;20063;-79
2022/01/31 00:37:37;;;;;;;18.75;5.35;;;;;;;;;;4949399;28;20166;-79
2022/01/31 00:40:05;;;;;;;18.38;6.22;;;;;;;;;;4949499;28;20516;-79
2022/01/31 00:42:31;;;;;;;12.63;5.50;;;;;;;;;;4971680;28;20499;-80
2022/01/31 00:45:09;;;;;;;12.75;5.05;;;;;;;;;;4951401;28;20433;-80
2022/01/31 00:47:35;;;;;;;12.98;5.15;;;;;;;;;;4979940;28;20027;-85
2022/01/31 00:50:11;;;;;;;14.30;5.40;;;;;;;;;;4963535;28;20520;-85
2022/01/31 00:52:39;;;;;;;15.35;4.97;;;;;;;;;;4952535;28;20030;-80
2022/01/31 00:55:06;;;;;;;15.57;4.88;;;;;;;;;;4965000;28;20090;-80
2022/01/31 00:57:31;;;;;;;15.13;5.35;;;;;;;;;;4970374;28;20019;-80
2022/01/31 00:59:57;;;;;;;17.77;5.65;;;;;;;;;;4950126;28;20154;-80
2022/01/31 01:02:23;;;;;;;15.48;5.28;;;;;;;;;;4946138;28;20810;-80
2022/01/31 01:04:49;;;;;;;11.45;4.57;;;;;;;;;;4949913;28;20375;-85
2022/01/31 01:07:15;;;;;;;17.88;4.97;;;;;;;;;;4949359;28;20030;-79
2022/01/31 01:09:42;;;;;;;13.38;4.45;;;;;;;;;;4949703;28;20493;-80
2022/01/31 01:12:09;;;;;;;16.92;5.38;;;;;;;;;;4966403;28;20027;-80
2022/01/31 01:14:34;;;;;;;15.73;5.35;;;;;;;;;;4946666;28;20541;-79
2022/01/31 01:17:00;;;;;;;12.13;5.25;;;;;;;;;;4943335;28;20046;-79
2022/01/31 01:19:25;;;;;;;12.70;5.22;;;;;;;;;;4968765;28;20034;-84
2022/01/31 01:21:50;;;;;;;16.40;5.85;;;;;;;;;;4948953;28;20062;-79
2022/01/31 01:24:16;;;;;;;12.88;5.25;;;;;;;;;;4950303;28;20559;-78
2022/01/31 01:26:42;;;;;;;14.93;5.43;;;;;;;;;;4949286;28;20055;-83
2022/01/31 01:29:07;;;;;;;17.42;5.57;;;;;;;;;;4947130;28;20031;-80
2022/01/31 01:31:33;;;;;;;11.55;5.40;;;;;;;;;;4944515;28;20044;-85
2022/01/31 01:33:58;;;;;;;13.02;5.50;;;;;;;;;;4948210;28;20089;-80
2022/01/31 01:36:24;;;;;;;12.00;5.15;;;;;;;;;;4963650;28;20029;-80
2022/01/31 01:38:49;;;;;;;12.82;5.93;;;;;;;;;;4947545;28;20035;-80
2022/01/31 01:41:15;;;;;;;14.50;6.40;;;;;;;;;;4966074;28;20031;-79
2022/01/31 01:43:40;;;;;;;14.85;5.85;;;;;;;;;;4957012;28;20039;-81
2022/01/31 01:46:05;;;;;;;14.35;5.55;;;;;;;;;;4952411;28;20121;-85
2022/01/31 01:48:31;;;;;;;13.35;5.72;;;;;;;;;;4939596;28;20034;-85
2022/01/31 01:50:58;;;;;;;13.63;5.50;;;;;;;;;;4957411;28;20035;-81
2022/01/31 01:53:24;;;;;;;15.82;5.60;;;;;;;;;;4958681;28;20041;-79
2022/01/31 01:55:52;;;;;;;11.60;5.55;;;;;;;;;;4946470;28;20023;-79
2022/01/31 01:58:19;;;;;;;12.50;5.80;;;;;;;;;;4950242;28;20042;-81
2022/01/31 02:00:58;;;;;;;15.40;5.93;;;;;;;;;;4962718;28;20035;-79
2022/01/31 02:03:27;;;;;;;14.45;6.00;;;;;;;;;;4956375;28;20041;-79
2022/01/31 02:05:53;;;;;;;10.25;4.75;;;;;;;;;;4948951;28;20019;-80
2022/01/31 02:08:19;;;;;;;14.15;5.35;;;;;;;;;;4967396;28;20040;-80
2022/01/31 02:10:45;;;;;;;12.50;5.25;;;;;;;;;;4964142;28;20508;-79
2022/01/31 02:13:11;;;;;;;15.60;5.47;;;;;;;;;;4964192;28;20568;-81
2022/01/31 02:15:38;;;;;;;16.42;5.60;;;;;;;;;;4944541;28;20121;-78
2022/01/31 02:18:04;;;;;;;14.50;6.18;;;;;;;;;;4959091;28;20120;-79
2022/01/31 02:20:30;;;;;;;11.90;5.45;;;;;;;;;;4963099;28;20038;-80
2022/01/31 02:22:57;;;;;;;15.50;6.05;;;;;;;;;;4947819;28;20406;-85
2022/01/31 02:25:22;;;;;;;11.32;5.85;;;;;;;;;;4963989;28;20414;-80
2022/01/31 02:27:48;;;;;;;13.10;5.28;;;;;;;;;;4960744;28;20055;-80
2022/01/31 02:30:16;;;;;;;10.55;4.60;;;;;;;;;;4947867;28;20571;-78
2022/01/31 02:32:41;;;;;;;9.32;4.05;;;;;;;;;;4946537;28;20083;-79
2022/01/31 02:35:07;;;;;;;7.35;4.03;;;;;;;;;;4962342;28;20141;-86
2022/01/31 02:37:33;;;;;;;9.73;4.20;;;;;;;;;;4945963;28;20031;-80
2022/01/31 02:39:59;;;;;;;6.82;4.20;;;;;;;;;;4963282;28;20027;-81
2022/01/31 02:42:24;;;;;;;7.50;3.72;;;;;;;;;;4971068;28;20026;-85
2022/01/31 02:44:50;;;;;;;8.45;4.05;;;;;;;;;;4970548;28;20113;-81
2022/01/31 02:47:23;;;;;;;11.10;3.58;;;;;;;;;;4966638;28;20120;-80
2022/01/31 02:49:52;;;;;;;;;;;;;;;;;;4962149;28;20541;-81
2022/01/31 02:52:18;;;;;;;6.63;3.25;;;;;;;;;;4947594;28;19918;-81
2022/01/31 02:54:44;;;;;;;8.80;3.53;;;;;;;;;;4958552;28;20425;-81
2022/01/31 02:57:10;;;;;;;8.77;3.50;;;;;;;;;;4945336;28;20077;-85
2022/01/31 02:59:36;;;;;;;9.00;3.85;;;;;;;;;;4952460;28;20026;-87
2022/01/31 03:02:01;;;;;;;10.95;4.47;;;;;;;;;;4968775;28;20056;-80
2022/01/31 03:04:26;;;;;;;9.23;4.10;;;;;;;;;;4962396;28;20045;-80
2022/01/31 03:06:53;;;;;;;7.07;3.85;;;;;;;;;;4949601;28;20527;-81
2022/01/31 03:09:19;;;;;;;9.38;3.72;;;;;;;;;;4961233;28;20519;-81
2022/01/31 03:11:45;;;;;;;11.20;4.15;;;;;;;;;;4966926;28;20046;-81
2022/01/31 03:14:10;;;;;;;8.48;3.63;;;;;;;;;;4960845;28;20583;-81
2022/01/31 03:16:40;;;;;;;13.30;3.90;;;;;;;;;;4966467;28;20070;-82
2022/01/31 03:19:07;;;;;;;15.52;4.22;;;;;;;;;;4964039;28;20031;-80
2022/01/31 03:21:32;;;;;;;12.88;3.53;;;;;;;;;;4947434;28;21815;-81
2022/01/31 03:23:58;;;;;;;11.85;3.58;;;;;;;;;;4964618;28;20027;-81
2022/01/31 03:26:23;;;;;;;11.10;3.50;;;;;;;;;;4960263;28;20066;-81
2022/01/31 03:28:50;;;;;;;11.25;3.58;;;;;;;;;;4948838;28;20034;-80
2022/01/31 03:31:18;;;;;;;11.15;3.30;;;;;;;;;;4946669;28;20037;-81
2022/01/31 03:33:45;;;;;;;13.13;3.28;;;;;;;;;;4960824;28;20046;-81
2022/01/31 03:36:10;;;;;;;11.68;2.90;;;;;;;;;;4945173;28;20026;-85
2022/01/31 03:38:40;;;;;;;11.77;2.85;;;;;;;;;;4962075;28;20034;-80
2022/01/31 03:41:09;;;;;;;10.75;3.17;;;;;;;;;;4950184;28;20066;-81
2022/01/31 03:43:34;;;;;;;8.82;2.53;;;;;;;;;;4947907;28;20510;-81
2022/01/31 03:46:00;;;;;;;11.65;2.85;;;;;;;;;;4953370;28;20023;-79
2022/01/31 03:48:27;;;;;;;7.85;1.92;;;;;;;;;;4949512;28;20119;-81
2022/01/31 03:50:53;;;;;;;13.65;2.30;;;;;;;;;;4970690;28;20015;-80
2022/01/31 03:53:19;;;;;;;8.07;1.90;;;;;;;;;;4953560;28;20081;-87
2022/01/31 03:55:44;;;;;;;11.52;1.92;;;;;;;;;;4949389;28;20461;-79
2022/01/31 03:58:09;;;;;;;8.77;1.95;;;;;;;;;;4969438;28;20089;-80
2022/01/31 04:00:35;;;;;;;13.20;2.30;;;;;;;;;;4960159;28;20034;-80
2022/01/31 04:03:00;;;;;;;10.65;2.00;;;;;;;;;;4964644;28;20038;-87
2022/01/31 04:05:25;;;;;;;9.27;2.05;;;;;;;;;;4951120;28;20027;-85
2022/01/31 04:07:51;;;;;;;11.95;1.98;;;;;;;;;;4953076;28;20093;-81
2022/01/31 04:10:16;;;;;;;10.85;2.10;;;;;;;;;;4952224;28;20026;-80
2022/01/31 04:12:41;;;;;;;11.90;2.00;;;;;;;;;;4967396;28;20111;-80
2022/01/31 04:15:07;;;;;;;14.55;2.17;;;;;;;;;;4952256;28;20031;-81
2022/01/31 04:17:33;;;;;;;9.15;1.75;;;;;;;;;;4951702;28;20019;-80
2022/01/31 04:19:58;;;;;;;12.82;1.92;;;;;;;;;;4951910;28;20965;-79
2022/01/31 04:22:27;;;;;;;9.63;1.88;;;;;;;;;;4964891;28;20034;-81
2022/01/31 04:24:58;;;;;;;6.22;1.40;;;;;;;;;;4971326;28;20065;-79
2022/01/31 04:27:28;;;;;;;8.85;1.83;;;;;;;;;;4950078;28;20046;-86
2022/01/31 04:29:53;;;;;;;11.25;1.85;;;;;;;;;;4947291;28;20501;-81
2022/01/31 04:32:18;;;;;;;8.65;1.30;;;;;;;;;;4948998;28;20044;-80
2022/01/31 04:34:44;;;;;;;9.48;1.75;;;;;;;;;;4949512;28;20039;-80
2022/01/31 04:37:10;;;;;;;15.90;2.17;;;;;;;;;;4962533;28;20038;-86
2022/01/31 04:39:36;;;;;;;10.10;2.13;;;;;;;;;;4963294;28;20475;-80
2022/01/31 04:42:02;;;;;;;10.05;1.63;;;;;;;;;;4953923;28;20047;-80
2022/01/31 04:44:27;;;;;;;13.25;2.28;;;;;;;;;;4955876;28;20038;-81
2022/01/31 04:46:54;;;;;;;9.35;1.88;;;;;;;;;;4948542;28;20031;-81
2022/01/31 04:49:20;;;;;;;12.23;1.85;;;;;;;;;;4966566;28;20034;-87
2022/01/31 04:51:46;;;;;;;12.32;1.70;;;;;;;;;;4962857;28;20483;-79
2022/01/31 04:54:11;;;;;;;7.35;1.42;;;;;;;;;;4952594;28;20501;-80
2022/01/31 04:56:40;;;;;;;11.45;1.70;;;;;;;;;;4949346;28;20019;-85
2022/01/31 04:59:05;;;;;;;11.48;1.83;;;;;;;;;;4949318;28;20408;-81
2022/01/31 05:01:31;;;;;;;10.35;1.73;;;;;;;;;;4965567;28;20034;-80
2022/01/31 05:03:56;;;;;;;7.80;1.48;;;;;;;;;;4970324;28;20066;-81
2022/01/31 05:06:29;;;;;;;10.15;1.40;;;;;;;;;;4947705;28;20030;-81
2022/01/31 05:08:54;;;;;;;14.18;2.03;;;;;;;;;;4948964;28;20030;-80
2022/01/31 05:11:20;;;;;;;12.32;1.67;;;;;;;;;;4965683;28;20536;-80
2022/01/31 05:13:46;;;;;;;8.35;1.48;;;;;;;;;;4960849;28;20027;-81
2022/01/31 05:16:11;;;;;;;10.80;1.45;;;;;;;;;;4947608;28;20509;-80
2022/01/31 05:18:38;;;;;;;11.13;1.50;;;;;;;;;;4949959;28;20035;-85
2022/01/31 05:21:05;;;;;;;15.20;1.98;;;;;;;;;;4957428;28;20042;-85
2022/01/31 05:23:31;;;;;;;9.95;1.73;;;;;;;;;;4950747;28;20125;-80
2022/01/31 05:25:56;;;;;;;7.82;2.20;;;;;;;;;;4947906;28;20149;-86
2022/01/31 05:28:22;;;;;;;7.85;1.50;;;;;;;;;;4945027;28;20138;-79
2022/01/31 05:30:47;;;;;;;8.98;2.00;;;;;;;;;;4952630;28;20141;-80
2022/01/31 05:33:12;;;;;;;18.25;2.53;;;;;;;;;;4948868;28;20026;-86
2022/01/31 05:35:38;;;;;;;13.15;1.90;;;;;;;;;;4951600;28;20105;-80
2022/01/31 05:38:03;;;;;;;12.60;1.67;;;;;;;;;;4946047;28;20042;-79
2022/01/31 05:40:30;;;;;;;9.68;1.20;;;;;;;;;;4950586;28;20027;-81
2022/01/31 05:42:56;;;;;;;4.38;1.10;;;;;;;;;;4977895;28;20554;-87
2022/01/31 05:45:21;;;;;;;5.03;0.80;;;;;;;;;;4950573;28;20058;-80
2022/01/31 05:47:47;;;;;;;7.55;1.10;;;;;;;;;;4948348;28;20027;-86
2022/01/31 05:50:12;;;;;;;8.73;0.95;;;;;;;;;;4951248;28;20485;-82
2022/01/31 05:52:38;;;;;;;6.75;1.05;;;;;;;;;;4969589;28;20117;-80
2022/01/31 05:55:04;;;;;;;8.88;1.23;;;;;;;;;;4944750;28;20034;-80
2022/01/31 05:57:32;;;;;;;9.10;1.30;;;;;;;;;;4949218;28;20596;-79
2022/01/31 05:59:58;;;;;;;10.10;1.25;;;;;;;;;;4953891;28;20048;-86
2022/01/31 06:02:23;;;;;;;7.95;1.33;;;;;;;;;;4966116;28;20657;-87
2022/01/31 06:04:49;;;;;;;7.57;1.67;;;;;;;;;;4952463;28;20046;-82
2022/01/31 06:07:15;;;;;;;10.88;1.73;;;;;;;;;;4964539;28;20078;-82
2022/01/31 06:09:40;;;;;;;8.75;1.73;;;;;;;;;;4947726;28;20141;-81
2022/01/31 06:12:06;;;;;;;11.10;1.73;;;;;;;;;;4963006;28;20046;-81
2022/01/31 06:14:32;;;;;;;8.70;1.60;;;;;;;;;;4943882;28;20034;-80
2022/01/31 06:16:58;;;;;;;9.15;1.90;;;;;;;;;;4967197;28;20191;-82
2022/01/31 06:19:23;;;;;;;8.93;1.73;;;;;;;;;;4947925;28;20121;-82
2022/01/31 06:21:48;;;;;;;8.52;1.58;;;;;;;;;;4967659;28;20045;-82
2022/01/31 06:24:15;;;;;;;12.25;1.67;;;;;;;;;;4948598;28;20030;-80
2022/01/31 06:26:41;;;;;;;14.57;1.92;;;;;;;;;;4946154;28;20486;-80
2022/01/31 06:29:07;;;;;;;14.32;2.00;;;;;;;;;;4943206;28;20708;-80
2022/01/31 06:31:32;;;;;;;11.45;2.83;;;;;;;;;;4949147;28;20133;-80
2022/01/31 06:33:58;;;;;;;11.35;1.90;;;;;;;;;;4948750;28;20026;-88
2022/01/31 06:36:24;;;;;;;14.65;2.28;;;;;;;;;;4972685;28;20034;-82
2022/01/31 06:38:50;;;;;;;14.52;2.58;;;;;;;;;;4948468;28;20683;-86
2022/01/31 06:41:17;;;;;;;12.48;1.90;;;;;;;;;;4945215;28;20101;-82
2022/01/31 06:43:43;;;;;;;11.63;1.95;;;;;;;;;;4959203;28;20038;-80
2022/01/31 06:46:09;;;;;;;9.77;2.00;;;;;;;;;;4949454;28;20393;-80
2022/01/31 06:48:34;;;;;;;20.60;2.42;;;;;;;;;;4962019;28;20121;-82
2022/01/31 06:51:00;;;;;;;15.57;2.28;;;;;;;;;;4959000;28;20031;-82
2022/01/31 06:53:27;;;;;;;9.32;2.10;;;;;;;;;;4949020;28;20125;-81
2022/01/31 06:55:57;;;;;;;11.38;1.55;;;;;;;;;;4945353;28;20026;-87
2022/01/31 06:58:23;;;;;;;16.17;2.97;;;;;;;;;;4961565;28;20031;-86
2022/01/31 07:00:49;;;;;;;16.58;2.42;;;;;;;;;;4960049;28;20035;-81
2022/01/31 07:03:14;;;;;;;12.43;2.08;;;;;;;;;;4944175;28;20129;-80
2022/01/31 07:05:44;;;;;;;15.02;2.17;;;;;;;;;;4969337;28;20030;-81
2022/01/31 07:08:10;;;;;;;15.98;2.33;;;;;;;;;;4968894;28;20038;-79
2022/01/31 07:10:37;;;;;;;16.15;2.58;;;;;;;;;;4943591;28;20081;-81
2022/01/31 07:13:11;;;;;;;11.77;1.75;;;;;;;;;;4974894;28;20118;-82
2022/01/31 07:15:36;;;;;;;15.07;2.08;;;;;;;;;;4943167;28;20650;-86
2022/01/31 07:18:01;;;;;;;10.85;1.30;;;;;;;;;;4946445;28;20030;-82
2022/01/31 07:20:41;;;;;;;9.18;1.80;;;;;;;;;;4943036;28;20394;-81
2022/01/31 07:25:55;;;;;;;11.52;1.50;;;;;;;;;;4948026;28;20578;-81
2022/01/31 07:28:23;;;;;;;12.25;2.00;;;;;;;;;;4959388;28;20047;-83
2022/01/31 07:30:52;;;;;;;11.15;1.90;;;;;;;;;;4959908;28;20459;-82
2022/01/31 07:33:18;;;;;;;11.68;1.65;;;;;;;;;;4946786;28;20030;-80
2022/01/31 07:35:46;;;;;;;6.95;1.35;;;;;;;;;;4953706;28;20045;-82
2022/01/31 07:38:12;;;;;;;10.75;1.92;;;;;;;;;;4944643;28;20074;-82
2022/01/31 07:40:38;;;;;;;11.52;1.75;;;;;;;;;;4945999;28;20070;-87
2022/01/31 07:43:04;;;;;;;14.35;1.65;;;;;;;;;;4960796;28;20031;-83
2022/01/31 07:45:30;;;;;;;14.57;2.25;;;;;;;;;;4945145;28;20050;-82
2022/01/31 07:47:55;;;;;;;14.15;1.95;;;;;;;;;;4964385;28;20110;-87
2022/01/31 07:50:21;;;;;;;12.45;2.05;;;;;;;;;;4949458;28;20069;-80
2022/01/31 07:52:46;;;;;;;16.30;2.25;;;;;;;;;;4943858;28;20062;-81
2022/01/31 07:55:12;;;;;;;14.57;1.98;;;;;;;;;;4961133;28;20041;-84
2022/01/31 07:57:40;;;;;;;10.77;2.00;;;;;;;;;;4942511;28;20042;-83
2022/01/31 08:00:07;;;;;;;16.88;2.17;;;;;;;;;;4963189;28;20081;-87
2022/01/31 08:02:32;;;;;;;10.88;2.15;;;;;;;;;;4965501;28;20046;-84
2022/01/31 08:04:58;;;;;;;17.80;2.22;;;;;;;;;;4944771;28;20030;-80
2022/01/31 08:07:23;;;;;;;14.57;2.47;;;;;;;;;;4945206;28;20034;-84
2022/01/31 08:09:49;;;;;;;8.63;1.33;;;;;;;;;;4944491;28;20391;-83
2022/01/31 08:12:14;;;;;;;15.35;2.45;;;;;;;;;;4966394;28;20066;-86
2022/01/31 08:14:40;;;;;;;13.63;2.40;;;;;;;;;;4944261;28;20031;-83
2022/01/31 08:17:05;;;;;;;16.02;2.10;;;;;;;;;;4957328;28;20027;-82
2022/01/31 08:19:31;;;;;;;18.52;2.90;;;;;;;;;;4944499;28;20094;-82
2022/01/31 08:21:56;;;;;;;12.77;2.22;;;;;;;;;;4946847;28;20030;-82
2022/01/31 08:24:22;;;;;;;16.60;1.92;;;;;;;;;;4945369;28;20027;-81
2022/01/31 08:26:48;;;;;;;15.77;2.33;;;;;;;;;;4944824;28;20055;-81
2022/01/31 08:29:30;;;;;;;17.25;2.30;;;;;;;;;;4957892;28;20034;-81
2022/01/31 08:31:57;;;;;;;13.07;1.83;;;;;;;;;;4942964;28;20034;-83
2022/01/31 08:35:47;;;;;;;13.05;2.00;;;;;;;;;;4959087;28;20726;-81
2022/01/31 08:37:14;;;;;;;15.68;2.00;;;;;;;;;;4964672;28;20617;-82
2022/01/31 08:39:40;;;;;;;12.18;1.80;;;;;;;;;;4949710;28;20062;-89
2022/01/31 08:42:05;;;;;;;10.75;1.98;;;;;;;;;;4947439;28;20057;-82
2022/01/31 08:44:31;;;;;;;16.55;2.53;;;;;;;;;;4943638;28;20501;-83
2022/01/31 08:46:56;;;;;;;19.02;2.50;;;;;;;;;;4963408;28;20035;-84
2022/01/31 08:49:21;;;;;;;15.77;2.22;;;;;;;;;;4942420;28;20022;-85
2022/01/31 08:51:47;;;;;;;17.50;2.65;;;;;;;;;;4956033;28;20027;-82
2022/01/31 08:54:13;;;;;;;14.55;2.40;;;;;;;;;;4958793;28;20477;-83
2022/01/31 08:56:43;;;;;;;14.40;2.20;;;;;;;;;;4961724;28;20102;-84
2022/01/31 08:59:12;;;;;;;17.88;2.65;;;;;;;;;;4938336;28;20568;-86
2022/01/31 09:01:38;;;;;;;19.08;2.63;;;;;;;;;;4945689;28;20023;-84
2022/01/31 09:04:04;;;;;;;17.30;2.72;;;;;;;;;;4929834;28;20569;-83
2022/01/31 09:06:33;;;;;;;15.43;2.20;;;;;;;;;;4949230;28;20037;-83
2022/01/31 09:08:59;;;;;;;16.02;2.30;;;;;;;;;;4936200;28;20029;-83
2022/01/31 09:11:26;;;;;;;13.75;2.20;;;;;;;;;;4949646;28;20528;-90
2022/01/31 09:13:52;;;;;;;23.58;4.90;;;;;;;;;;4943191;28;20034;-82
2022/01/31 09:16:18;;;;;;;25.50;4.03;;;;;;;;;;4935925;28;20049;-83
2022/01/31 09:18:43;;;;;;;15.13;2.40;;;;;;;;;;4943345;28;20544;-83
2022/01/31 09:21:09;;;;;;;16.55;2.38;;;;;;;;;;4939577;28;20027;-87
2022/01/31 09:23:34;;;;;;;22.10;2.55;;;;;;;;;;4955048;28;20976;-81
2022/01/31 09:26:00;;;;;;;15.18;3.70;;;;;;;;;;4941003;28;20035;-82
2022/01/31 09:28:26;;;;;;;26.65;5.53;;;;;;;;;;4938417;28;20143;-85
2022/01/31 09:30:54;;;;;;;23.30;3.92;;;;;;;;;;4956438;28;20436;-82
2022/01/31 09:33:19;;;;;;;21.17;3.10;;;;;;;;;;4953437;28;20035;-82
2022/01/31 09:35:45;;;;;;;17.92;2.80;;;;;;;;;;4961537;28;20034;-89
2022/01/31 09:38:17;;;;;;;17.35;3.20;;;;;;;;;;4944917;28;20536;-82
2022/01/31 09:40:42;;;;;;;23.92;5.07;;;;;;;;;;4955698;28;20474;-88
2022/01/31 09:43:28;;;;;;;19.92;3.15;;;;;;;;;;4944368;28;20102;-87
2022/01/31 09:48:36;;;;;;;21.92;2.67;;;;;;;;;;4956927;28;20033;-82
2022/01/31 09:51:08;;;;;;;19.17;2.70;;;;;;;;;;4943806;28;20057;-87
2022/01/31 09:53:39;;;;;;;18.17;3.15;;;;;;;;;;4943172;28;20107;-90
2022/01/31 09:56:08;;;;;;;20.40;3.03;;;;;;;;;;4958713;28;20042;-83
2022/01/31 09:58:34;;;;;;;21.67;2.97;;;;;;;;;;4940311;28;20162;-83
2022/01/31 10:01:09;;;;;;;21.67;3.10;;;;;;;;;;4945520;28;20058;-86
2022/01/31 10:03:52;;;;;;;22.15;2.95;;;;;;;;;;4946057;28;20299;-83
2022/01/31 10:06:33;;;;;;;21.08;3.42;;;;;;;;;;4955671;28;20042;-82
2022/01/31 10:09:06;;;;;;;25.52;3.85;;;;;;;;;;4946374;28;20428;-83
2022/01/31 10:11:51;;;;;;;27.75;4.05;;;;;;;;;;5102065;27;20906;-84
2022/01/31 10:17:22;;;;;;;32.15;3.95;;;;;;;;;;5094264;28;20034;-87
2022/01/31 10:19:48;;;;;;;32.95;4.60;;;;;;;;;;5096742;28;20110;-82
2022/01/31 10:22:15;;;;;;;27.52;4.47;;;;;;;;;;5096072;28;20040;-83
2022/01/31 10:24:44;;;;;;;26.30;3.58;;;;;;;;;;5094048;28;20035;-84
2022/01/31 10:27:21;;;;;;;35.63;4.80;;;;;;;;;;5096551;28;20031;-86
2022/01/31 10:29:49;;;;;;;27.00;3.65;;;;;;;;;;5091907;28;20067;-87
2022/01/31 10:32:20;;;;;;;26.48;3.78;;;;;;;;;;5095122;28;20039;-88
2022/01/31 10:34:56;;;;;;;29.45;4.50;;;;;;;;;;5098977;28;20024;-87
2022/01/31 10:37:23;;;;;;;26.98;4.97;;;;;;;;;;5088870;28;20035;-84
2022/01/31 10:45:36;;;;;;;32.25;6.40;;;;;;;;;;5096917;28;20471;-84
2022/01/31 10:51:35;;;;;;;29.33;5.20;;;;;;;;;;5089930;28;20058;-84
2022/01/31 10:56:39;;;;;;;18.95;3.25;;;;;;;;;;5097768;28;20039;-83
2022/01/31 10:59:12;;;;;;;25.88;3.28;;;;;;;;;;5093517;28;20032;-87
2022/01/31 11:01:39;;;;;;;22.20;3.47;;;;;;;;;;5095348;28;20031;-83
2022/01/31 11:04:10;;;;;;;26.83;3.70;;;;;;;;;;5097011;28;20132;-82
2022/01/31 11:06:36;;;;;;;21.25;3.42;;;;;;;;;;5092065;28;20036;-83
2022/01/31 11:09:08;;;;;;;26.90;3.58;;;;;;;;;;5090992;28;20407;-84
2022/01/31 11:11:35;;;;;;;24.42;3.92;;;;;;;;;;5100763;27;20101;-88
2022/01/31 11:14:03;;;;;;;26.50;3.22;;;;;;;;;;5088928;28;20771;-84
2022/01/31 11:16:29;;;;;;;16.20;2.60;;;;;;;;;;5092542;28;20036;-86
2022/01/31 11:18:58;;;;;;;21.15;3.15;;;;;;;;;;5109695;27;20032;-87
2022/01/31 11:21:28;;;;;;;19.23;3.80;;;;;;;;;;5081252;28;20024;-83
2022/01/31 11:24:00;;;;;;;23.05;2.60;;;;;;;;;;5070727;28;20074;-84
2022/01/31 11:26:33;;;;;;;18.87;3.53;;;;;;;;;;5075689;28;20552;-82
2022/01/31 11:29:00;;;;;;;21.50;3.80;;;;;;;;;;5082691;28;20062;-85
2022/01/31 11:31:26;;;;;;;25.30;3.53;;;;;;;;;;5078520;28;20859;-81
2022/01/31 11:33:53;;;;;;;22.88;3.38;;;;;;;;;;5076973;28;20114;-82
2022/01/31 11:36:19;;;;;;;25.25;2.65;;;;;;;;;;5091018;27;20067;-87
2022/01/31 11:38:45;;;;;;;23.10;3.17;;;;;;;;;;5085133;28;20123;-83
2022/01/31 11:41:12;;;;;;;22.48;3.60;;;;;;;;;;5081042;28;20110;-83
2022/01/31 11:43:37;;;;;;;28.77;4.57;;;;;;;;;;5078014;28;20126;-83
2022/01/31 11:46:04;;;;;;;23.40;3.70;;;;;;;;;;5075069;28;20139;-83
2022/01/31 11:48:30;;;;;;;28.33;4.30;;;;;;;;;;5076572;28;20031;-81
2022/01/31 11:51:00;;;;;;;27.35;3.70;;;;;;;;;;5077853;28;20816;-83
2022/01/31 11:53:34;;;;;;;30.85;4.57;;;;;;;;;;5081886;28;20119;-82
2022/01/31 11:56:22;;;;;;;27.90;3.78;;;;;;;;;;5074856;28;21033;-82
2022/01/31 11:58:53;;;;;;;21.77;3.33;;;;;;;;;;5084008;28;20107;-82
2022/01/31 12:01:20;;;;;;;24.85;3.72;;;;;;;;;;5081430;28;20069;-83
2022/01/31 12:03:51;;;;;;;27.75;4.15;;;;;;;;;;5081490;28;20038;-83
2022/01/31 12:06:27;;;;;;;26.73;4.10;;;;;;;;;;5083777;28;20039;-87
2022/01/31 12:08:54;;;;;;;26.40;3.65;;;;;;;;;;5084159;28;20147;-82
2022/01/31 12:11:28;;;;;;;25.27;5.35;;;;;;;;;;5081694;28;20067;-87
2022/01/31 12:13:59;;;;;;;26.73;3.83;;;;;;;;;;5070715;28;20555;-84
2022/01/31 12:19:46;;;;;;;25.67;3.72;;;;;;;;;;5076147;28;20084;-83
2022/01/31 12:22:47;;;;;;;28.65;3.67;;;;;;;;;;5074287;28;20240;-86
2022/01/31 12:25:28;;;;;;;29.40;3.85;;;;;;;;;;5051264;28;20486;-83
2022/01/31 12:27:55;;;;;;;30.90;4.40;;;;;;;;;;5077847;28;20016;-83
2022/01/31 12:30:33;;;;;;;27.33;4.13;;;;;;;;;;5073873;28;20039;-86
2022/01/31 12:32:58;;;;;;;26.73;3.58;;;;;;;;;;5081992;28;20491;-88
2022/01/31 12:35:33;;;;;;;23.70;3.42;;;;;;;;;;5075469;28;20069;-86
2022/01/31 12:37:58;;;;;;;23.42;4.13;;;;;;;;;;5077060;28;20507;-82
2022/01/31 12:40:33;;;;;;;22.80;3.42;;;;;;;;;;5077886;28;20106;-86
2022/01/31 12:45:37;;;;;;;28.75;4.35;;;;;;;;;;5072390;28;20036;-83
2022/01/31 12:48:06;;;;;;;29.73;4.30;;;;;;;;;;5071861;28;20620;-89
2022/01/31 12:50:34;;;;;;;29.05;3.80;;;;;;;;;;5083614;28;20028;-84
2022/01/31 12:53:06;;;;;;;24.73;3.53;;;;;;;;;;5072867;28;20766;-87
2022/01/31 12:55:32;;;;;;;29.00;4.15;;;;;;;;;;5080608;28;20028;-84
2022/01/31 12:57:58;;;;;;;29.00;4.30;;;;;;;;;;5081987;28;20038;-87
2022/01/31 13:00:43;;;;;;;25.48;3.78;;;;;;;;;;5084390;28;20028;-84
2022/01/31 13:03:10;;;;;;;25.13;4.55;;;;;;;;;;5079375;28;20032;-84
2022/01/31 13:05:39;;;;;;;29.40;4.55;;;;;;;;;;5053365;28;20032;-87
2022/01/31 13:08:23;;;;;;;29.75;4.32;;;;;;;;;;5065938;28;20024;-87
2022/01/31 13:10:51;;;;;;;36.53;4.93;;;;;;;;;;5081688;28;20048;-82
2022/01/31 13:13:30;;;;;;;29.35;4.38;;;;;;;;;;5064599;28;20068;-84
2022/01/31 13:16:04;;;;;;;34.17;4.18;;;;;;;;;;5078789;28;20031;-83
2022/01/31 13:18:32;;;;;;;27.45;3.85;;;;;;;;;;5077249;28;20028;-83
2022/01/31 13:20:58;;;;;;;27.38;4.20;;;;;;;;;;5086838;28;20115;-82
2022/01/31 13:23:25;;;;;;;31.38;4.45;;;;;;;;;;5077778;28;20038;-83
2022/01/31 13:26:02;;;;;;;32.10;5.13;;;;;;;;;;5075915;28;20039;-83
2022/01/31 13:28:27;;;;;;;34.53;4.80;;;;;;;;;;5081934;28;20058;-83
2022/01/31 13:30:53;;;;;;;28.90;4.10;;;;;;;;;;5078784;28;20066;-84
2022/01/31 13:33:19;;;;;;;30.98;4.65;;;;;;;;;;5078260;28;20035;-83
2022/01/31 13:35:46;;;;;;;37.95;5.03;;;;;;;;;;5076957;28;20506;-87
2022/01/31 13:38:15;;;;;;;31.13;4.43;;;;;;;;;;5073162;28;20396;-82
2022/01/31 13:40:44;;;;;;;27.38;4.20;;;;;;;;;;5079612;28;20031;-82
2022/01/31 13:43:27;;;;;;;26.20;4.10;;;;;;;;;;5080951;28;20028;-83
2022/01/31 13:46:08;;;;;;;22.20;3.55;;;;;;;;;;5080357;28;20077;-84
2022/01/31 13:51:42;;;;;;;29.00;4.20;;;;;;;;;;5081064;28;20039;-82
2022/01/31 13:54:15;;;;;;;27.42;3.22;;;;;;;;;;5071898;28;20035;-84
2022/01/31 13:56:52;;;;;;;24.13;3.67;;;;;;;;;;5076194;28;20219;-83
2022/01/31 13:59:19;;;;;;;24.83;3.85;;;;;;;;;;5079622;28;20067;-84
2022/01/31 14:01:45;;;;;;;25.52;4.28;;;;;;;;;;5078296;28;20032;-83
2022/01/31 14:04:11;;;;;;;24.70;3.72;;;;;;;;;;5086401;28;20097;-83
2022/01/31 14:06:38;;;;;;;26.35;4.15;;;;;;;;;;5085727;28;20123;-88
2022/01/31 14:09:09;;;;;;;25.25;3.83;;;;;;;;;;5082660;28;20033;-83
2022/01/31 14:11:39;;;;;;;26.45;4.45;;;;;;;;;;5073212;28;20124;-87
2022/01/31 14:14:05;;;;;;;26.52;4.10;;;;;;;;;;5077373;28;20028;-84
2022/01/31 14:16:33;;;;;;;27.58;3.53;;;;;;;;;;5081314;28;20754;-83
2022/01/31 14:19:03;;;;;;;26.70;4.68;;;;;;;;;;5078510;28;20031;-83
2022/01/31 14:21:29;;;;;;;25.17;4.10;;;;;;;;;;5068976;28;20048;-85
2022/01/31 14:23:56;;;;;;;23.70;3.65;;;;;;;;;;5075047;28;20035;-82
2022/01/31 14:26:43;;;;;;;27.67;4.05;;;;;;;;;;5075125;28;20036;-84
2022/01/31 14:29:14;;;;;;;30.52;4.20;;;;;;;;;;5073630;28;20038;-84
2022/01/31 14:31:43;;;;;;;30.98;3.90;;;;;;;;;;5074144;28;20128;-82
2022/01/31 14:34:14;;;;;;;27.83;4.63;;;;;;;;;;5066167;28;20496;-84
2022/01/31 14:36:42;;;;;;;38.90;4.57;;;;;;;;;;5080616;28;20084;-86
2022/01/31 14:47:48;;;;;;;26.67;4.63;;;;;;;;;;5071096;28;20039;-86
2022/01/31 14:50:59;;;;;;;25.45;3.78;;;;;;;;;;5079874;28;20035;-83
2022/01/31 14:53:24;;;;;;;29.35;4.53;;;;;;;;;;5044679;28;22863;-84
2022/01/31 14:55:50;;;;;;;29.08;4.70;;;;;;;;;;5081122;28;20024;-88
2022/01/31 14:58:17;;;;;;;26.30;3.63;;;;;;;;;;5073164;28;20037;-86
2022/01/31 15:00:45;;;;;;;28.50;3.90;;;;;;;;;;5076940;28;20025;-83
2022/01/31 15:03:11;;;;;;;27.48;3.30;;;;;;;;;;5083940;28;20485;-87
2022/01/31 15:05:39;;;;;;;25.92;3.33;;;;;;;;;;5090676;28;20030;-84
2022/01/31 15:08:08;;;;;;;25.90;3.70;;;;;;;;;;5079189;28;20036;-83
2022/01/31 15:10:34;;;;;;;25.05;4.05;;;;;;;;;;5091558;28;20051;-88
2022/01/31 15:13:02;;;;;;;25.70;3.90;;;;;;;;;;5087225;28;20032;-89
2022/01/31 15:15:28;;;;;;;24.08;3.65;;;;;;;;;;5092182;28;22847;-83